sensor_id;sensor_type;location;lat;lon;timestamp;temperature;humidity
45233;DHT22;30969;51.052;17.056;2022-10-03T00:03:21;12.40;85.70
45233;DHT22;30969;51.052;17.056;2022-10-03T00:08:51;12.40;85.90
45233;DHT22;30969;51.052;17.056;2022-10-03T00:14:03;12.50;85.70
45233;DHT22;30969;51.052;17.056;2022-10-03T00:19:15;12.50;85.40
45233;DHT22;30969;51.052;17.056;2022-10-03T00:24:34;12.50;85.80
45233;DHT22;30969;51.052;17.056;2022-10-03T00:29:52;12.50;85.80
45233;DHT22;30969;51.052;17.056;2022-10-03T00:35:14;12.60;85.50
45233;DHT22;30969;51.052;17.056;2022-10-03T00:46:59;12.50;85.10
45233;DHT22;30969;51.052;17.056;2022-10-03T00:57:55;12.50;84.90
45233;DHT22;30969;51.052;17.056;2022-10-03T01:03:10;12.30;85.10
45233;DHT22;30969;51.052;17.056;2022-10-03T01:14:20;12.30;85.40
45233;DHT22;30969;51.052;17.056;2022-10-03T01:19:41;12.30;85.30
45233;DHT22;30969;51.052;17.056;2022-10-03T01:24:52;12.20;85.80
45233;DHT22;30969;51.052;17.056;2022-10-03T01:30:02;12.10;85.70
45233;DHT22;30969;51.052;17.056;2022-10-03T01:35:37;12.10;86.00
45233;DHT22;30969;51.052;17.056;2022-10-03T01:40:54;12.20;85.90
45233;DHT22;30969;51.052;17.056;2022-10-03T01:46:07;12.10;85.60
45233;DHT22;30969;51.052;17.056;2022-10-03T01:51:17;12.10;86.00
45233;DHT22;30969;51.052;17.056;2022-10-03T01:56:27;12.00;86.40
45233;DHT22;30969;51.052;17.056;2022-10-03T02:01:43;12.00;86.70
45233;DHT22;30969;51.052;17.056;2022-10-03T02:06:53;12.00;86.70
45233;DHT22;30969;51.052;17.056;2022-10-03T02:12:13;11.90;87.90
45233;DHT22;30969;51.052;17.056;2022-10-03T02:17:29;12.00;86.70
45233;DHT22;30969;51.052;17.056;2022-10-03T02:22:51;12.10;86.30
45233;DHT22;30969;51.052;17.056;2022-10-03T02:28:14;12.10;86.20
45233;DHT22;30969;51.052;17.056;2022-10-03T02:33:51;12.10;86.10
45233;DHT22;30969;51.052;17.056;2022-10-03T02:39:18;12.20;86.00
45233;DHT22;30969;51.052;17.056;2022-10-03T02:44:50;12.10;85.90
45233;DHT22;30969;51.052;17.056;2022-10-03T03:01:49;12.00;86.10
45233;DHT22;30969;51.052;17.056;2022-10-03T03:07:08;12.00;86.30
45233;DHT22;30969;51.052;17.056;2022-10-03T03:12:40;12.10;86.40
45233;DHT22;30969;51.052;17.056;2022-10-03T03:17:52;12.10;86.40
45233;DHT22;30969;51.052;17.056;2022-10-03T03:23:22;12.10;86.30
45233;DHT22;30969;51.052;17.056;2022-10-03T03:28:40;12.20;86.20
45233;DHT22;30969;51.052;17.056;2022-10-03T03:33:52;12.10;86.20
45233;DHT22;30969;51.052;17.056;2022-10-03T03:39:04;12.10;86.50
45233;DHT22;30969;51.052;17.056;2022-10-03T03:44:43;12.10;86.80
45233;DHT22;30969;51.052;17.056;2022-10-03T03:50:01;12.20;86.70
45233;DHT22;30969;51.052;17.056;2022-10-03T03:55:31;12.10;86.30
45233;DHT22;30969;51.052;17.056;2022-10-03T04:01:02;12.10;86.70
45233;DHT22;30969;51.052;17.056;2022-10-03T04:06:20;12.10;86.60
45233;DHT22;30969;51.052;17.056;2022-10-03T04:11:39;12.10;87.40
45233;DHT22;30969;51.052;17.056;2022-10-03T04:17:04;12.10;87.10
45233;DHT22;30969;51.052;17.056;2022-10-03T04:22:45;12.10;87.10
45233;DHT22;30969;51.052;17.056;2022-10-03T04:33:35;12.00;86.60
45233;DHT22;30969;51.052;17.056;2022-10-03T04:38:52;12.00;86.60
45233;DHT22;30969;51.052;17.056;2022-10-03T04:44:02;12.00;86.30
45233;DHT22;30969;51.052;17.056;2022-10-03T04:49:13;12.00;86.10
45233;DHT22;30969;51.052;17.056;2022-10-03T04:54:25;12.00;85.90
45233;DHT22;30969;51.052;17.056;2022-10-03T04:59:41;12.00;86.10
45233;DHT22;30969;51.052;17.056;2022-10-03T05:05:07;12.00;85.50
45233;DHT22;30969;51.052;17.056;2022-10-03T05:10:25;12.10;85.30
45233;DHT22;30969;51.052;17.056;2022-10-03T05:15:33;12.10;85.50
45233;DHT22;30969;51.052;17.056;2022-10-03T05:20:53;12.10;86.10
45233;DHT22;30969;51.052;17.056;2022-10-03T05:26:04;12.20;86.20
45233;DHT22;30969;51.052;17.056;2022-10-03T05:31:37;12.20;87.00
45233;DHT22;30969;51.052;17.056;2022-10-03T05:36:57;12.20;87.30
45233;DHT22;30969;51.052;17.056;2022-10-03T05:42:34;12.10;86.90
45233;DHT22;30969;51.052;17.056;2022-10-03T05:47:48;12.10;86.80
45233;DHT22;30969;51.052;17.056;2022-10-03T05:53:23;12.10;86.60
45233;DHT22;30969;51.052;17.056;2022-10-03T05:58:52;12.10;85.80
45233;DHT22;30969;51.052;17.056;2022-10-03T06:04:21;12.00;86.60
45233;DHT22;30969;51.052;17.056;2022-10-03T06:21:06;12.10;89.20
45233;DHT22;30969;51.052;17.056;2022-10-03T06:26:33;12.00;89.60
45233;DHT22;30969;51.052;17.056;2022-10-03T06:43:38;11.90;90.20
45233;DHT22;30969;51.052;17.056;2022-10-03T06:49:22;11.80;90.30
45233;DHT22;30969;51.052;17.056;2022-10-03T07:00:18;12.00;90.10
45233;DHT22;30969;51.052;17.056;2022-10-03T07:11:13;11.90;90.40
45233;DHT22;30969;51.052;17.056;2022-10-03T07:16:46;11.90;90.80
45233;DHT22;30969;51.052;17.056;2022-10-03T07:22:19;11.90;90.20
45233;DHT22;30969;51.052;17.056;2022-10-03T07:27:32;12.00;90.30
45233;DHT22;30969;51.052;17.056;2022-10-03T07:44:32;12.10;89.40
45233;DHT22;30969;51.052;17.056;2022-10-03T07:50:34;12.10;90.00
45233;DHT22;30969;51.052;17.056;2022-10-03T07:55:56;12.10;90.20
45233;DHT22;30969;51.052;17.056;2022-10-03T08:01:16;12.20;90.30
45233;DHT22;30969;51.052;17.056;2022-10-03T08:06:29;12.20;90.60
45233;DHT22;30969;51.052;17.056;2022-10-03T08:11:48;12.20;91.20
45233;DHT22;30969;51.052;17.056;2022-10-03T08:17:18;12.10;91.10
45233;DHT22;30969;51.052;17.056;2022-10-03T08:22:40;12.10;91.10
45233;DHT22;30969;51.052;17.056;2022-10-03T08:28:21;12.20;91.20
45233;DHT22;30969;51.052;17.056;2022-10-03T08:33:45;12.30;91.10
45233;DHT22;30969;51.052;17.056;2022-10-03T08:38:59;12.40;90.40
45233;DHT22;30969;51.052;17.056;2022-10-03T08:44:37;12.40;90.40
45233;DHT22;30969;51.052;17.056;2022-10-03T08:50:06;12.30;90.20
45233;DHT22;30969;51.052;17.056;2022-10-03T09:01:01;12.30;89.30
45233;DHT22;30969;51.052;17.056;2022-10-03T09:06:41;12.40;89.30
45233;DHT22;30969;51.052;17.056;2022-10-03T09:18:27;12.40;89.30
45233;DHT22;30969;51.052;17.056;2022-10-03T09:24:20;12.40;89.50
45233;DHT22;30969;51.052;17.056;2022-10-03T09:29:47;12.60;90.20
45233;DHT22;30969;51.052;17.056;2022-10-03T09:46:58;12.80;86.60
45233;DHT22;30969;51.052;17.056;2022-10-03T09:52:38;12.80;85.30
45233;DHT22;30969;51.052;17.056;2022-10-03T09:58:17;12.90;85.10
45233;DHT22;30969;51.052;17.056;2022-10-03T10:03:51;12.90;85.40
45233;DHT22;30969;51.052;17.056;2022-10-03T10:09:45;13.10;84.50
45233;DHT22;30969;51.052;17.056;2022-10-03T10:15:13;13.20;83.60
45233;DHT22;30969;51.052;17.056;2022-10-03T10:20:38;13.40;83.40
45233;DHT22;30969;51.052;17.056;2022-10-03T10:37:51;13.60;78.20
45233;DHT22;30969;51.052;17.056;2022-10-03T10:43:28;13.50;78.80
45233;DHT22;30969;51.052;17.056;2022-10-03T11:00:17;13.70;79.80
45233;DHT22;30969;51.052;17.056;2022-10-03T11:05:43;13.60;79.70
45233;DHT22;30969;51.052;17.056;2022-10-03T11:11:09;13.60;81.70
45233;DHT22;30969;51.052;17.056;2022-10-03T11:16:54;13.40;83.00
45233;DHT22;30969;51.052;17.056;2022-10-03T11:22:24;13.30;85.10
45233;DHT22;30969;51.052;17.056;2022-10-03T11:39:31;13.40;85.80
45233;DHT22;30969;51.052;17.056;2022-10-03T11:44:40;13.40;85.70
45233;DHT22;30969;51.052;17.056;2022-10-03T11:50:18;13.30;86.80
45233;DHT22;30969;51.052;17.056;2022-10-03T11:55:29;13.30;87.10
45233;DHT22;30969;51.052;17.056;2022-10-03T12:00:35;13.20;89.00
45233;DHT22;30969;51.052;17.056;2022-10-03T12:05:55;13.30;89.40
45233;DHT22;30969;51.052;17.056;2022-10-03T12:11:18;13.20;89.20
45233;DHT22;30969;51.052;17.056;2022-10-03T12:16:28;13.20;89.90
45233;DHT22;30969;51.052;17.056;2022-10-03T12:21:42;13.20;90.10
45233;DHT22;30969;51.052;17.056;2022-10-03T12:26:56;13.20;90.10
45233;DHT22;30969;51.052;17.056;2022-10-03T12:32:12;13.00;89.90
45233;DHT22;30969;51.052;17.056;2022-10-03T12:37:34;13.00;90.40
45233;DHT22;30969;51.052;17.056;2022-10-03T12:42:46;13.00;90.50
45233;DHT22;30969;51.052;17.056;2022-10-03T12:48:03;13.10;90.80
45233;DHT22;30969;51.052;17.056;2022-10-03T12:53:21;13.20;91.20
45233;DHT22;30969;51.052;17.056;2022-10-03T12:58:33;13.40;90.60
45233;DHT22;30969;51.052;17.056;2022-10-03T13:03:49;13.60;90.60
45233;DHT22;30969;51.052;17.056;2022-10-03T13:09:08;13.70;89.10
45233;DHT22;30969;51.052;17.056;2022-10-03T13:14:27;13.90;87.20
45233;DHT22;30969;51.052;17.056;2022-10-03T13:19:40;13.90;87.00
45233;DHT22;30969;51.052;17.056;2022-10-03T13:25:00;13.90;85.60
45233;DHT22;30969;51.052;17.056;2022-10-03T13:30:13;13.80;84.70
45233;DHT22;30969;51.052;17.056;2022-10-03T13:35:26;13.70;83.50
45233;DHT22;30969;51.052;17.056;2022-10-03T13:40:57;13.70;82.80
45233;DHT22;30969;51.052;17.056;2022-10-03T13:46:12;13.70;82.90
45233;DHT22;30969;51.052;17.056;2022-10-03T13:51:23;13.80;83.60
45233;DHT22;30969;51.052;17.056;2022-10-03T13:56:44;13.80;82.20
45233;DHT22;30969;51.052;17.056;2022-10-03T14:01:56;13.80;82.30
45233;DHT22;30969;51.052;17.056;2022-10-03T14:07:09;13.90;81.20
45233;DHT22;30969;51.052;17.056;2022-10-03T14:12:21;13.90;80.50
45233;DHT22;30969;51.052;17.056;2022-10-03T14:17:54;13.90;80.50
45233;DHT22;30969;51.052;17.056;2022-10-03T14:23:12;13.90;80.20
45233;DHT22;30969;51.052;17.056;2022-10-03T14:28:28;13.80;80.20
45233;DHT22;30969;51.052;17.056;2022-10-03T14:33:40;13.80;81.50
45233;DHT22;30969;51.052;17.056;2022-10-03T14:39:07;13.90;80.40
45233;DHT22;30969;51.052;17.056;2022-10-03T14:44:18;14.00;80.00
45233;DHT22;30969;51.052;17.056;2022-10-03T14:49:28;14.00;79.00
45233;DHT22;30969;51.052;17.056;2022-10-03T14:54:55;13.90;78.30
45233;DHT22;30969;51.052;17.056;2022-10-03T15:00:02;14.00;77.40
45233;DHT22;30969;51.052;17.056;2022-10-03T15:05:11;14.00;77.20
45233;DHT22;30969;51.052;17.056;2022-10-03T15:10:19;14.10;77.00
45233;DHT22;30969;51.052;17.056;2022-10-03T15:15:28;14.10;76.50
45233;DHT22;30969;51.052;17.056;2022-10-03T15:20:35;14.20;76.60
45233;DHT22;30969;51.052;17.056;2022-10-03T15:25:40;14.30;76.40
45233;DHT22;30969;51.052;17.056;2022-10-03T15:30:46;14.30;76.40
45233;DHT22;30969;51.052;17.056;2022-10-03T15:35:54;14.40;76.20
45233;DHT22;30969;51.052;17.056;2022-10-03T15:41:07;14.40;75.30
45233;DHT22;30969;51.052;17.056;2022-10-03T15:46:32;14.40;75.50
45233;DHT22;30969;51.052;17.056;2022-10-03T15:51:37;14.40;74.90
45233;DHT22;30969;51.052;17.056;2022-10-03T15:56:43;14.40;75.10
45233;DHT22;30969;51.052;17.056;2022-10-03T16:01:49;14.30;75.10
45233;DHT22;30969;51.052;17.056;2022-10-03T16:07:00;14.20;75.10
45233;DHT22;30969;51.052;17.056;2022-10-03T16:12:25;14.00;75.10
45233;DHT22;30969;51.052;17.056;2022-10-03T16:17:39;13.90;75.90
45233;DHT22;30969;51.052;17.056;2022-10-03T16:22:47;13.80;76.30
45233;DHT22;30969;51.052;17.056;2022-10-03T16:27:55;13.80;76.70
45233;DHT22;30969;51.052;17.056;2022-10-03T16:33:06;13.70;76.90
45233;DHT22;30969;51.052;17.056;2022-10-03T16:38:19;13.70;76.90
45233;DHT22;30969;51.052;17.056;2022-10-03T16:43:24;13.60;77.20
45233;DHT22;30969;51.052;17.056;2022-10-03T16:48:32;13.50;77.40
45233;DHT22;30969;51.052;17.056;2022-10-03T16:53:54;13.50;77.90
45233;DHT22;30969;51.052;17.056;2022-10-03T16:59:04;13.50;78.10
45233;DHT22;30969;51.052;17.056;2022-10-03T17:04:19;13.40;78.10
45233;DHT22;30969;51.052;17.056;2022-10-03T17:09:28;13.40;78.40
45233;DHT22;30969;51.052;17.056;2022-10-03T17:14:36;13.30;78.60
45233;DHT22;30969;51.052;17.056;2022-10-03T17:19:44;13.40;78.90
45233;DHT22;30969;51.052;17.056;2022-10-03T17:24:51;13.40;78.70
45233;DHT22;30969;51.052;17.056;2022-10-03T17:30:00;13.30;78.50
45233;DHT22;30969;51.052;17.056;2022-10-03T17:35:11;13.30;78.30
45233;DHT22;30969;51.052;17.056;2022-10-03T17:40:20;13.30;78.70
45233;DHT22;30969;51.052;17.056;2022-10-03T17:45:31;13.20;78.50
45233;DHT22;30969;51.052;17.056;2022-10-03T17:50:46;13.20;78.40
45233;DHT22;30969;51.052;17.056;2022-10-03T17:55:55;13.20;78.50
45233;DHT22;30969;51.052;17.056;2022-10-03T18:01:05;13.20;78.90
45233;DHT22;30969;51.052;17.056;2022-10-03T18:06:37;13.00;79.30
45233;DHT22;30969;51.052;17.056;2022-10-03T18:11:45;13.00;79.80
45233;DHT22;30969;51.052;17.056;2022-10-03T18:16:52;13.00;80.10
45233;DHT22;30969;51.052;17.056;2022-10-03T18:22:05;13.00;80.50
45233;DHT22;30969;51.052;17.056;2022-10-03T18:32:53;13.10;80.60
45233;DHT22;30969;51.052;17.056;2022-10-03T18:38:10;13.10;80.70
45233;DHT22;30969;51.052;17.056;2022-10-03T18:43:33;13.00;81.20
45233;DHT22;30969;51.052;17.056;2022-10-03T18:48:44;13.00;81.60
45233;DHT22;30969;51.052;17.056;2022-10-03T18:54:23;13.00;81.90
45233;DHT22;30969;51.052;17.056;2022-10-03T18:59:34;13.10;82.30
45233;DHT22;30969;51.052;17.056;2022-10-03T19:04:43;13.10;82.50
45233;DHT22;30969;51.052;17.056;2022-10-03T19:10:12;13.10;83.10
45233;DHT22;30969;51.052;17.056;2022-10-03T19:15:34;13.10;83.10
45233;DHT22;30969;51.052;17.056;2022-10-03T19:20:42;13.10;83.30
45233;DHT22;30969;51.052;17.056;2022-10-03T19:25:51;13.10;82.90
45233;DHT22;30969;51.052;17.056;2022-10-03T19:31:01;13.10;83.10
45233;DHT22;30969;51.052;17.056;2022-10-03T19:36:13;13.10;82.90
45233;DHT22;30969;51.052;17.056;2022-10-03T19:41:26;13.10;82.90
45233;DHT22;30969;51.052;17.056;2022-10-03T19:52:09;13.10;82.50
45233;DHT22;30969;51.052;17.056;2022-10-03T19:57:16;13.10;82.70
45233;DHT22;30969;51.052;17.056;2022-10-03T20:02:22;13.10;82.70
45233;DHT22;30969;51.052;17.056;2022-10-03T20:07:43;13.10;82.90
45233;DHT22;30969;51.052;17.056;2022-10-03T20:12:50;13.10;83.00
45233;DHT22;30969;51.052;17.056;2022-10-03T20:17:59;13.10;83.60
45233;DHT22;30969;51.052;17.056;2022-10-03T20:23:05;13.20;83.40
45233;DHT22;30969;51.052;17.056;2022-10-03T20:28:18;13.20;83.50
45233;DHT22;30969;51.052;17.056;2022-10-03T20:33:24;13.10;84.40
45233;DHT22;30969;51.052;17.056;2022-10-03T20:38:43;13.10;85.30
45233;DHT22;30969;51.052;17.056;2022-10-03T20:43:55;13.10;85.80
45233;DHT22;30969;51.052;17.056;2022-10-03T20:49:13;13.00;86.00
45233;DHT22;30969;51.052;17.056;2022-10-03T20:54:22;13.00;85.90
45233;DHT22;30969;51.052;17.056;2022-10-03T20:59:34;13.00;86.30
45233;DHT22;30969;51.052;17.056;2022-10-03T21:04:44;12.80;85.90
45233;DHT22;30969;51.052;17.056;2022-10-03T21:09:55;12.90;86.20
45233;DHT22;30969;51.052;17.056;2022-10-03T21:15:03;12.80;86.20
45233;DHT22;30969;51.052;17.056;2022-10-03T21:20:12;12.80;85.50
45233;DHT22;30969;51.052;17.056;2022-10-03T21:25:20;12.80;85.80
45233;DHT22;30969;51.052;17.056;2022-10-03T21:30:43;12.80;85.70
45233;DHT22;30969;51.052;17.056;2022-10-03T21:35:48;12.80;85.90
45233;DHT22;30969;51.052;17.056;2022-10-03T21:41:22;12.80;85.90
45233;DHT22;30969;51.052;17.056;2022-10-03T21:46:35;12.80;85.90
45233;DHT22;30969;51.052;17.056;2022-10-03T21:51:57;12.80;85.50
45233;DHT22;30969;51.052;17.056;2022-10-03T21:57:10;12.80;85.10
45233;DHT22;30969;51.052;17.056;2022-10-03T22:02:22;12.70;84.70
45233;DHT22;30969;51.052;17.056;2022-10-03T22:07:35;12.70;84.30
45233;DHT22;30969;51.052;17.056;2022-10-03T22:12:41;12.80;84.80
45233;DHT22;30969;51.052;17.056;2022-10-03T22:17:51;12.80;84.80
45233;DHT22;30969;51.052;17.056;2022-10-03T22:23:14;12.80;84.60
45233;DHT22;30969;51.052;17.056;2022-10-03T22:28:32;12.80;85.50
45233;DHT22;30969;51.052;17.056;2022-10-03T22:33:50;12.80;85.40
45233;DHT22;30969;51.052;17.056;2022-10-03T22:38:58;12.80;85.90
45233;DHT22;30969;51.052;17.056;2022-10-03T22:44:05;12.80;85.70
45233;DHT22;30969;51.052;17.056;2022-10-03T22:49:15;12.80;85.60
45233;DHT22;30969;51.052;17.056;2022-10-03T22:54:21;12.70;85.90
45233;DHT22;30969;51.052;17.056;2022-10-03T22:59:29;12.70;85.80
45233;DHT22;30969;51.052;17.056;2022-10-03T23:04:37;12.70;85.90
45233;DHT22;30969;51.052;17.056;2022-10-03T23:09:51;12.70;86.00
45233;DHT22;30969;51.052;17.056;2022-10-03T23:14:59;12.70;86.30
45233;DHT22;30969;51.052;17.056;2022-10-03T23:20:14;12.70;86.50
45233;DHT22;30969;51.052;17.056;2022-10-03T23:25:25;12.70;86.60
45233;DHT22;30969;51.052;17.056;2022-10-03T23:30:53;12.70;86.90
45233;DHT22;30969;51.052;17.056;2022-10-03T23:36:01;12.70;87.10
45233;DHT22;30969;51.052;17.056;2022-10-03T23:41:09;12.70;87.20
45233;DHT22;30969;51.052;17.056;2022-10-03T23:46:18;12.80;86.90
45233;DHT22;30969;51.052;17.056;2022-10-03T23:51:32;12.70;87.20
45233;DHT22;30969;51.052;17.056;2022-10-03T23:56:38;12.70;87.50
